createdAt,value
2019-04-22T00:00:57.278Z,81.90
2019-04-22T00:06:29.325Z,82.80
2019-04-22T00:16:47.442Z,83.60
2019-04-22T00:21:47.639Z,83.40
2019-04-22T00:27:00.287Z,83.60
2019-04-22T00:32:11.357Z,83.60
2019-04-22T00:37:17.679Z,83.60
2019-04-22T00:42:27.496Z,83.40
2019-04-22T00:47:32.454Z,83.50
2019-04-22T00:52:43.137Z,83.50
2019-04-22T00:57:46.473Z,84.40
2019-04-22T01:02:59.265Z,84.30
2019-04-22T01:08:04.300Z,85.00
2019-04-22T01:13:04.871Z,88.20
2019-04-22T01:18:09.314Z,89.90
2019-04-22T01:23:19.799Z,90.10
2019-04-22T01:28:18.042Z,89.60
2019-04-22T01:33:16.300Z,89.90
2019-04-22T01:38:38.868Z,90.20
2019-04-22T01:44:00.697Z,90.80
2019-04-22T01:48:59.540Z,91.10
2019-04-22T01:54:07.199Z,92.00
2019-04-22T01:59:05.112Z,92.10
2019-04-22T02:04:17.600Z,92.20
2019-04-22T02:09:31.216Z,92.30
2019-04-22T02:14:36.512Z,93.10
2019-04-22T02:19:35.954Z,93.10
2019-04-22T02:24:46.819Z,93.60
2019-04-22T02:35:03.773Z,94.80
2019-04-22T02:40:09.642Z,95.50
2019-04-22T02:45:23.138Z,96.40
2019-04-22T02:50:15.745Z,97.20
2019-04-22T02:55:33.014Z,97.80
2019-04-22T03:00:58.925Z,98.20
2019-04-22T03:06:02.069Z,98.30
2019-04-22T03:11:13.134Z,97.40
2019-04-22T03:16:07.672Z,98.00
2019-04-22T03:42:07.471Z,97.00
2019-04-22T03:52:22.887Z,98.10
2019-04-22T03:57:36.906Z,97.70
2019-04-22T04:07:57.702Z,98.60
2019-04-22T04:13:00.001Z,98.50
2019-04-22T04:23:24.403Z,99.90
2019-04-22T04:28:31.529Z,99.90
2019-04-22T04:38:28.824Z,99.40
2019-04-22T04:43:35.033Z,99.60
2019-04-22T04:59:07.458Z,99.20
2019-04-22T05:04:04.728Z,99.20
2019-04-22T05:09:21.485Z,99.70
2019-04-22T05:19:22.613Z,99.90
2019-04-22T05:29:43.983Z,99.90
2019-04-22T05:34:35.104Z,99.90
2019-04-22T05:39:45.439Z,99.90
2019-04-22T05:44:55.469Z,99.90
2019-04-22T05:50:00.012Z,99.90
2019-04-22T05:55:11.216Z,99.90
2019-04-22T06:00:17.459Z,99.90
2019-04-22T06:05:21.398Z,99.90
2019-04-22T06:15:44.171Z,99.90
2019-04-22T06:20:51.819Z,99.90
2019-04-22T06:26:05.281Z,99.90
2019-04-22T06:31:02.622Z,99.90
2019-04-22T06:36:03.709Z,99.90
2019-04-22T06:41:14.009Z,99.90
2019-04-22T06:46:20.619Z,99.90
2019-04-22T06:51:27.124Z,99.90
2019-04-22T06:56:27.738Z,99.90
2019-04-22T07:01:55.013Z,99.90
2019-04-22T07:06:48.114Z,99.90
2019-04-22T07:11:54.411Z,99.70
2019-04-22T07:17:05.153Z,98.80
2019-04-22T07:22:11.313Z,99.20
2019-04-22T07:27:18.878Z,99.50
2019-04-22T07:32:32.080Z,98.20
2019-04-22T07:42:36.918Z,98.00
2019-04-22T07:47:46.580Z,97.30
2019-04-22T07:52:52.173Z,94.90
2019-04-22T07:58:00.737Z,96.10
2019-04-22T08:03:13.257Z,95.20
2019-04-22T08:08:19.707Z,94.20
2019-04-22T08:13:25.199Z,93.40
2019-04-22T08:18:46.779Z,93.60
2019-04-22T08:23:43.323Z,93.30
2019-04-22T08:28:46.870Z,95.30
2019-04-22T08:34:00.544Z,94.10
2019-04-22T08:39:01.950Z,93.70
2019-04-22T08:44:10.561Z,93.40
2019-04-22T08:49:10.488Z,93.20
2019-04-22T08:54:19.960Z,92.50
2019-04-22T08:59:22.229Z,93.30
2019-04-22T09:04:31.419Z,94.20
2019-04-22T09:09:44.462Z,91.80
2019-04-22T09:14:45.626Z,91.30
2019-04-22T09:20:11.263Z,87.40
2019-04-22T09:25:06.606Z,88.50
2019-04-22T09:30:18.971Z,87.50
2019-04-22T09:35:25.097Z,89.60
2019-04-22T09:40:28.962Z,88.10
2019-04-22T09:45:41.841Z,89.10
2019-04-22T09:50:47.702Z,88.30
2019-04-22T09:55:57.478Z,87.20
2019-04-22T10:06:29.443Z,91.30
2019-04-22T10:16:39.065Z,90.00
2019-04-22T10:21:49.935Z,90.20
2019-04-22T10:27:01.987Z,86.90
2019-04-22T10:31:55.846Z,83.60
2019-04-22T10:36:39.795Z,81.30
2019-04-22T10:41:46.395Z,83.50
2019-04-22T10:46:51.987Z,85.20
2019-04-22T10:51:58.376Z,75.10
2019-04-22T10:57:03.809Z,79.30
2019-04-22T11:02:09.767Z,75.20
2019-04-22T11:07:15.424Z,73.00
2019-04-22T11:12:25.172Z,72.40
2019-04-22T11:17:29.327Z,77.00
2019-04-22T11:22:37.397Z,74.40
2019-04-22T11:27:44.190Z,70.00
2019-04-22T11:32:50.673Z,74.00
2019-04-22T11:37:56.841Z,60.90
2019-04-22T11:43:02.175Z,62.80
2019-04-22T11:48:09.172Z,59.30
2019-04-22T11:53:14.656Z,63.60
2019-04-22T11:58:21.199Z,64.10
2019-04-22T12:03:27.181Z,61.50
2019-04-22T12:08:34.063Z,58.20
2019-04-22T12:13:39.933Z,60.80
2019-04-22T12:18:47.112Z,62.30
2019-04-22T12:23:52.925Z,62.30
2019-04-22T12:28:59.320Z,60.10
2019-04-22T12:34:06.019Z,62.40
2019-04-22T12:39:11.627Z,61.70
2019-04-22T12:44:18.011Z,60.10
2019-04-22T12:49:23.439Z,58.30
2019-04-22T12:54:29.072Z,59.30
2019-04-22T12:59:35.346Z,60.00
2019-04-22T13:04:40.595Z,58.80
2019-04-22T13:09:47.275Z,58.60
2019-04-22T13:14:52.957Z,58.80
2019-04-22T13:19:58.415Z,56.30
2019-04-22T13:25:04.299Z,56.00
2019-04-22T13:30:12.458Z,56.40
2019-04-22T13:35:19.986Z,58.70
2019-04-22T13:40:25.262Z,57.90
2019-04-22T13:45:31.817Z,58.20
2019-04-22T13:51:05.814Z,56.40
2019-04-22T13:56:03.553Z,57.80
2019-04-22T14:00:52.309Z,56.60
2019-04-22T14:05:58.519Z,58.50
2019-04-22T14:11:18.028Z,58.30
2019-04-22T14:16:10.996Z,56.60
2019-04-22T14:21:16.876Z,56.80
2019-04-22T14:26:22.992Z,57.80
2019-04-22T14:31:28.697Z,59.50
2019-04-22T14:36:35.154Z,56.70
2019-04-22T14:41:55.449Z,56.10
2019-04-22T14:47:15.587Z,56.80
2019-04-22T14:52:16.408Z,57.80
2019-04-22T14:57:01.131Z,55.80
2019-04-22T15:02:10.124Z,55.60
2019-04-22T15:07:15.149Z,55.80
2019-04-22T15:12:30.214Z,57.10
2019-04-22T15:17:42.914Z,57.80
2019-04-22T15:22:48.472Z,56.60
2019-04-22T15:27:55.208Z,55.70
2019-04-22T15:33:01.217Z,55.30
2019-04-22T15:38:06.929Z,56.90
2019-04-22T15:43:12.949Z,56.10
2019-04-22T15:48:18.807Z,55.20
2019-04-22T15:53:25.332Z,57.30
2019-04-22T15:58:31.025Z,55.70
2019-04-22T16:03:36.830Z,55.10
2019-04-22T16:08:43.688Z,56.60
2019-04-22T16:13:50.615Z,55.60
2019-04-22T16:18:56.231Z,55.10
2019-04-22T16:24:22.305Z,58.30
2019-04-22T16:29:29.489Z,60.70
2019-04-22T16:34:36.068Z,62.30
2019-04-22T16:39:43.681Z,59.10
2019-04-22T16:44:49.630Z,59.90
2019-04-22T16:49:55.312Z,60.10
2019-04-22T16:55:00.952Z,61.10
2019-04-22T17:05:33.739Z,62.00
2019-04-22T17:10:39.734Z,64.10
2019-04-22T17:15:45.238Z,62.20
2019-04-22T17:20:50.835Z,62.30
2019-04-22T17:25:56.742Z,63.30
2019-04-22T17:31:02.116Z,59.90
2019-04-22T17:36:07.696Z,60.60
2019-04-22T17:41:24.327Z,61.00
2019-04-22T17:46:56.366Z,60.30
2019-04-22T17:57:29.451Z,60.70
2019-04-22T18:02:26.692Z,63.70
2019-04-22T18:07:38.298Z,61.90
2019-04-22T18:12:52.762Z,62.70
2019-04-22T18:18:01.088Z,63.50
2019-04-22T18:22:52.517Z,64.20
2019-04-22T18:28:11.579Z,65.10
2019-04-22T18:33:13.232Z,65.60
2019-04-22T18:38:31.454Z,65.70
2019-04-22T18:43:33.955Z,65.90
2019-04-22T18:48:34.981Z,66.60
2019-04-22T18:54:11.851Z,65.70
2019-04-22T18:59:07.724Z,66.40
2019-04-22T19:04:11.594Z,66.70
2019-04-22T19:09:38.350Z,66.30
2019-04-22T19:14:51.171Z,67.10
2019-04-22T19:19:56.157Z,67.80
2019-04-22T19:24:54.992Z,68.60
2019-04-22T19:30:04.506Z,68.80
2019-04-22T19:35:11.918Z,68.90
2019-04-22T19:40:46.190Z,69.50
2019-04-22T19:45:19.961Z,69.60
2019-04-22T19:50:35.061Z,69.70
2019-04-22T19:55:36.259Z,70.70
2019-04-22T20:00:56.272Z,70.70
2019-04-22T20:06:16.074Z,70.90
2019-04-22T20:11:31.274Z,71.90
2019-04-22T20:16:27.219Z,71.10
2019-04-22T20:21:40.560Z,72.90
2019-04-22T20:26:50.010Z,73.70
2019-04-22T20:31:53.099Z,73.50
2019-04-22T20:37:08.651Z,73.60
2019-04-22T20:42:21.279Z,73.40
2019-04-22T20:47:09.075Z,73.30
2019-04-22T20:52:31.403Z,73.30
2019-04-22T20:57:32.019Z,73.40
2019-04-22T21:02:27.781Z,73.40
2019-04-22T21:07:37.106Z,74.40
2019-04-22T21:12:38.684Z,72.70
2019-04-22T21:17:55.318Z,73.20
2019-04-22T21:23:02.310Z,71.50
2019-04-22T21:28:09.959Z,71.10
2019-04-22T21:33:11.927Z,71.30
2019-04-22T21:38:26.528Z,71.70
2019-04-22T21:43:30.099Z,71.60
2019-04-22T21:48:54.400Z,71.10
2019-04-22T21:53:55.181Z,70.80
2019-04-22T21:58:59.605Z,71.50
2019-04-22T22:04:05.320Z,70.80
2019-04-22T22:09:13.556Z,71.80
2019-04-22T22:14:14.954Z,72.20
2019-04-22T22:19:26.618Z,72.90
2019-04-22T22:24:34.234Z,72.10
2019-04-22T22:29:56.123Z,71.10
2019-04-22T22:34:40.387Z,70.00
2019-04-22T22:39:40.025Z,70.50
2019-04-22T22:44:41.706Z,71.20
2019-04-22T22:50:03.182Z,70.90
2019-04-22T22:55:10.690Z,71.00
2019-04-22T23:00:18.359Z,71.70
2019-04-22T23:05:23.696Z,72.30
2019-04-22T23:10:31.625Z,72.00
2019-04-22T23:15:33.271Z,72.20
2019-04-22T23:20:30.981Z,72.30
2019-04-22T23:25:54.730Z,73.20
2019-04-22T23:31:23.713Z,73.20
2019-04-22T23:37:06.889Z,73.10
2019-04-22T23:42:19.065Z,73.00
2019-04-22T23:47:21.096Z,74.80
2019-04-22T23:52:45.122Z,74.90
2019-04-22T23:57:47.097Z,75.70
